sensor_id;sensor_type;location;lat;lon;timestamp;pressure;altitude;pressure_sealevel;temperature;humidity
12624;BME280;6377;42.836;23.998;2023-04-09T00:02:12;95903.13;;;7.67;100.00
12624;BME280;6377;42.836;23.998;2023-04-09T00:04:41;95921.25;;;7.70;100.00
12624;BME280;6377;42.836;23.998;2023-04-09T00:07:08;95948.25;;;7.98;100.00
12624;BME280;6377;42.836;23.998;2023-04-09T00:09:35;95945.63;;;7.98;100.00
12624;BME280;6377;42.836;23.998;2023-04-09T00:12:03;95945.63;;;7.98;100.00
12624;BME280;6377;42.836;23.998;2023-04-09T00:14:30;95951.56;;;8.00;100.00
12624;BME280;6377;42.836;23.998;2023-04-09T00:16:57;95849.13;;;7.37;100.00
12624;BME280;6377;42.836;23.998;2023-04-09T00:19:24;95949.75;;;8.00;100.00
12624;BME280;6377;42.836;23.998;2023-04-09T00:21:53;95950.06;;;7.97;100.00
12624;BME280;6377;42.836;23.998;2023-04-09T00:24:20;95954.59;;;7.87;100.00
12624;BME280;6377;42.836;23.998;2023-04-09T00:26:48;95954.03;;;7.75;100.00
12624;BME280;6377;42.836;23.998;2023-04-09T00:29:15;95941.78;;;7.66;100.00
12624;BME280;6377;42.836;23.998;2023-04-09T00:31:42;95953.44;;;7.64;100.00
12624;BME280;6377;42.836;23.998;2023-04-09T00:34:09;95947.59;;;7.52;100.00
12624;BME280;6377;42.836;23.998;2023-04-09T00:36:37;95945.50;;;7.56;100.00
12624;BME280;6377;42.836;23.998;2023-04-09T00:39:05;95885.81;;;7.13;100.00
12624;BME280;6377;42.836;23.998;2023-04-09T00:41:33;95947.59;;;7.52;100.00
12624;BME280;6377;42.836;23.998;2023-04-09T00:44:00;95948.91;;;7.48;100.00
12624;BME280;6377;42.836;23.998;2023-04-09T00:46:27;95948.38;;;7.45;100.00
12624;BME280;6377;42.836;23.998;2023-04-09T00:48:54;95954.25;;;7.39;100.00
12624;BME280;6377;42.836;23.998;2023-04-09T00:51:22;95842.25;;;6.57;100.00
12624;BME280;6377;42.836;23.998;2023-04-09T00:53:49;95959.75;;;7.27;100.00
12624;BME280;6377;42.836;23.998;2023-04-09T00:56:21;95949.59;;;7.32;100.00
12624;BME280;6377;42.836;23.998;2023-04-09T00:58:49;95940.50;;;7.27;100.00
12624;BME280;6377;42.836;23.998;2023-04-09T01:01:16;95772.41;;;6.19;100.00
12624;BME280;6377;42.836;23.998;2023-04-09T01:03:44;95954.03;;;7.32;100.00
12624;BME280;6377;42.836;23.998;2023-04-09T01:06:16;95953.59;;;7.19;100.00
12624;BME280;6377;42.836;23.998;2023-04-09T01:08:52;95956.13;;;7.11;100.00
12624;BME280;6377;42.836;23.998;2023-04-09T01:11:32;95961.38;;;7.11;100.00
12624;BME280;6377;42.836;23.998;2023-04-09T01:14:07;95887.97;;;6.64;100.00
12624;BME280;6377;42.836;23.998;2023-04-09T01:16:41;95950.84;;;7.11;100.00
12624;BME280;6377;42.836;23.998;2023-04-09T01:19:20;95955.75;;;7.23;100.00
12624;BME280;6377;42.836;23.998;2023-04-09T01:21:56;95962.09;;;7.30;100.00
12624;BME280;6377;42.836;23.998;2023-04-09T01:24:35;95962.56;;;7.34;100.00
12624;BME280;6377;42.836;23.998;2023-04-09T01:27:06;95837.66;;;6.59;100.00
12624;BME280;6377;42.836;23.998;2023-04-09T01:29:44;95961.78;;;7.33;100.00
12624;BME280;6377;42.836;23.998;2023-04-09T01:32:14;95933.94;;;7.13;100.00
12624;BME280;6377;42.836;23.998;2023-04-09T01:34:44;95963.56;;;7.33;100.00
12624;BME280;6377;42.836;23.998;2023-04-09T01:37:13;95967.53;;;7.37;100.00
12624;BME280;6377;42.836;23.998;2023-04-09T01:39:41;95838.94;;;6.55;100.00
12624;BME280;6377;42.836;23.998;2023-04-09T01:42:09;95948.94;;;7.13;100.00
12624;BME280;6377;42.836;23.998;2023-04-09T01:44:40;95918.50;;;6.93;100.00
12624;BME280;6377;42.836;23.998;2023-04-09T01:47:09;95964.00;;;7.28;100.00
12624;BME280;6377;42.836;23.998;2023-04-09T01:49:37;95969.81;;;7.32;100.00
12624;BME280;6377;42.836;23.998;2023-04-09T01:52:06;95963.03;;;7.29;100.00
12624;BME280;6377;42.836;23.998;2023-04-09T01:54:33;95974.69;;;7.27;100.00
12624;BME280;6377;42.836;23.998;2023-04-09T01:57:00;95957.91;;;7.28;100.00
12624;BME280;6377;42.836;23.998;2023-04-09T01:59:27;95961.84;;;7.24;100.00
12624;BME280;6377;42.836;23.998;2023-04-09T02:01:58;95920.44;;;7.08;100.00
12624;BME280;6377;42.836;23.998;2023-04-09T02:04:31;95966.22;;;7.15;100.00
12624;BME280;6377;42.836;23.998;2023-04-09T02:07:03;95966.22;;;7.33;100.00
12624;BME280;6377;42.836;23.998;2023-04-09T02:09:33;95970.63;;;7.32;100.00
12624;BME280;6377;42.836;23.998;2023-04-09T02:12:03;95968.44;;;7.28;100.00
12624;BME280;6377;42.836;23.998;2023-04-09T02:14:32;95946.00;;;7.16;100.00
12624;BME280;6377;42.836;23.998;2023-04-09T02:17:02;95964.53;;;7.32;100.00
12624;BME280;6377;42.836;23.998;2023-04-09T02:19:38;95909.78;;;6.92;100.00
12624;BME280;6377;42.836;23.998;2023-04-09T02:22:05;95967.41;;;7.21;100.00
12624;BME280;6377;42.836;23.998;2023-04-09T02:24:32;95964.53;;;7.14;100.00
12624;BME280;6377;42.836;23.998;2023-04-09T02:27:00;95967.34;;;7.13;100.00
12624;BME280;6377;42.836;23.998;2023-04-09T02:29:27;95968.53;;;7.18;100.00
12624;BME280;6377;42.836;23.998;2023-04-09T02:31:55;95960.66;;;7.01;100.00
12624;BME280;6377;42.836;23.998;2023-04-09T02:34:23;95865.44;;;6.17;100.00
12624;BME280;6377;42.836;23.998;2023-04-09T02:36:51;95960.25;;;6.78;100.00
12624;BME280;6377;42.836;23.998;2023-04-09T02:39:18;95818.34;;;5.79;100.00
12624;BME280;6377;42.836;23.998;2023-04-09T02:41:45;95949.72;;;6.60;100.00
12624;BME280;6377;42.836;23.998;2023-04-09T02:44:12;95960.00;;;6.71;100.00
12624;BME280;6377;42.836;23.998;2023-04-09T02:46:40;95937.78;;;6.66;100.00
12624;BME280;6377;42.836;23.998;2023-04-09T02:49:08;95961.28;;;6.85;100.00
12624;BME280;6377;42.836;23.998;2023-04-09T02:51:36;95929.44;;;6.70;100.00
12624;BME280;6377;42.836;23.998;2023-04-09T02:54:03;95963.41;;;6.99;100.00
12624;BME280;6377;42.836;23.998;2023-04-09T02:56:31;95958.38;;;7.06;100.00
12624;BME280;6377;42.836;23.998;2023-04-09T02:58:58;95941.03;;;6.95;100.00
12624;BME280;6377;42.836;23.998;2023-04-09T03:01:25;95963.28;;;7.18;100.00
12624;BME280;6377;42.836;23.998;2023-04-09T03:03:52;95966.56;;;7.20;100.00
12624;BME280;6377;42.836;23.998;2023-04-09T03:06:19;95952.22;;;7.15;100.00
12624;BME280;6377;42.836;23.998;2023-04-09T03:08:48;95939.19;;;6.96;100.00
12624;BME280;6377;42.836;23.998;2023-04-09T03:11:15;95828.16;;;6.31;100.00
12624;BME280;6377;42.836;23.998;2023-04-09T03:13:42;95952.16;;;7.07;100.00
12624;BME280;6377;42.836;23.998;2023-04-09T03:16:10;95940.94;;;7.05;100.00
12624;BME280;6377;42.836;23.998;2023-04-09T03:18:37;95973.03;;;7.26;100.00
12624;BME280;6377;42.836;23.998;2023-04-09T03:21:05;95969.13;;;7.30;100.00
12624;BME280;6377;42.836;23.998;2023-04-09T03:23:33;95981.69;;;7.36;100.00
12624;BME280;6377;42.836;23.998;2023-04-09T03:26:04;95981.38;;;7.39;100.00
12624;BME280;6377;42.836;23.998;2023-04-09T03:28:31;95975.81;;;7.42;100.00
12624;BME280;6377;42.836;23.998;2023-04-09T03:30:58;95937.09;;;7.17;100.00
12624;BME280;6377;42.836;23.998;2023-04-09T03:33:25;95954.63;;;7.26;100.00
12624;BME280;6377;42.836;23.998;2023-04-09T03:35:53;95980.38;;;7.40;100.00
12624;BME280;6377;42.836;23.998;2023-04-09T03:38:20;95979.59;;;7.40;100.00
12624;BME280;6377;42.836;23.998;2023-04-09T03:40:47;95992.44;;;7.43;100.00
12624;BME280;6377;42.836;23.998;2023-04-09T03:43:15;95968.28;;;7.47;100.00
12624;BME280;6377;42.836;23.998;2023-04-09T03:45:42;95975.88;;;7.50;100.00
12624;BME280;6377;42.836;23.998;2023-04-09T03:48:10;95935.59;;;7.32;100.00
12624;BME280;6377;42.836;23.998;2023-04-09T03:50:37;95974.09;;;7.51;100.00
12624;BME280;6377;42.836;23.998;2023-04-09T03:53:05;95993.06;;;7.37;100.00
12624;BME280;6377;42.836;23.998;2023-04-09T03:55:33;95970.41;;;7.44;100.00
12624;BME280;6377;42.836;23.998;2023-04-09T03:58:00;95980.84;;;7.53;100.00
12624;BME280;6377;42.836;23.998;2023-04-09T04:00:28;95868.53;;;6.75;100.00
12624;BME280;6377;42.836;23.998;2023-04-09T04:02:56;95980.84;;;7.36;100.00
12624;BME280;6377;42.836;23.998;2023-04-09T04:05:23;95945.16;;;6.98;100.00
12624;BME280;6377;42.836;23.998;2023-04-09T04:07:51;95983.91;;;7.13;100.00
12624;BME280;6377;42.836;23.998;2023-04-09T04:10:19;95933.56;;;6.73;100.00
12624;BME280;6377;42.836;23.998;2023-04-09T04:12:46;95987.28;;;6.88;100.00
12624;BME280;6377;42.836;23.998;2023-04-09T04:15:13;95995.63;;;6.56;100.00
12624;BME280;6377;42.836;23.998;2023-04-09T04:17:42;95913.09;;;5.95;100.00
12624;BME280;6377;42.836;23.998;2023-04-09T04:20:10;95800.94;;;5.14;100.00
12624;BME280;6377;42.836;23.998;2023-04-09T04:22:37;95971.56;;;6.34;100.00
12624;BME280;6377;42.836;23.998;2023-04-09T04:25:05;95981.69;;;6.46;100.00
12624;BME280;6377;42.836;23.998;2023-04-09T04:27:32;95979.91;;;6.47;100.00
12624;BME280;6377;42.836;23.998;2023-04-09T04:29:59;95985.53;;;6.52;100.00
12624;BME280;6377;42.836;23.998;2023-04-09T04:32:27;95939.56;;;6.11;100.00
12624;BME280;6377;42.836;23.998;2023-04-09T04:34:55;95992.44;;;6.62;100.00
12624;BME280;6377;42.836;23.998;2023-04-09T04:37:23;95986.63;;;6.59;100.00
12624;BME280;6377;42.836;23.998;2023-04-09T04:39:50;95991.09;;;6.49;100.00
12624;BME280;6377;42.836;23.998;2023-04-09T04:42:17;95922.56;;;6.15;100.00
12624;BME280;6377;42.836;23.998;2023-04-09T04:44:44;95957.25;;;6.46;100.00
12624;BME280;6377;42.836;23.998;2023-04-09T04:47:11;95988.63;;;6.74;100.00
12624;BME280;6377;42.836;23.998;2023-04-09T04:49:38;95963.81;;;6.59;100.00
12624;BME280;6377;42.836;23.998;2023-04-09T04:52:07;95991.47;;;6.81;100.00
12624;BME280;6377;42.836;23.998;2023-04-09T04:54:35;95982.38;;;6.75;100.00
12624;BME280;6377;42.836;23.998;2023-04-09T04:57:02;95907.44;;;6.27;100.00
12624;BME280;6377;42.836;23.998;2023-04-09T04:59:29;95989.56;;;7.01;100.00
12624;BME280;6377;42.836;23.998;2023-04-09T05:01:56;95967.97;;;6.80;100.00
12624;BME280;6377;42.836;23.998;2023-04-09T05:04:24;95983.16;;;6.86;100.00
12624;BME280;6377;42.836;23.998;2023-04-09T05:06:51;95862.81;;;6.17;100.00
12624;BME280;6377;42.836;23.998;2023-04-09T05:09:19;96013.78;;;7.04;100.00
12624;BME280;6377;42.836;23.998;2023-04-09T05:11:47;95967.84;;;6.99;100.00
12624;BME280;6377;42.836;23.998;2023-04-09T05:14:14;95990.31;;;7.28;100.00
12624;BME280;6377;42.836;23.998;2023-04-09T05:16:41;95933.56;;;6.91;100.00
12624;BME280;6377;42.836;23.998;2023-04-09T05:19:08;95982.28;;;7.30;100.00
12624;BME280;6377;42.836;23.998;2023-04-09T05:21:36;95973.81;;;7.36;100.00
12624;BME280;6377;42.836;23.998;2023-04-09T05:24:05;95807.63;;;6.27;100.00
12624;BME280;6377;42.836;23.998;2023-04-09T05:26:37;95922.22;;;7.08;100.00
12624;BME280;6377;42.836;23.998;2023-04-09T05:29:04;95968.66;;;7.34;100.00
12624;BME280;6377;42.836;23.998;2023-04-09T05:31:31;95991.97;;;7.47;100.00
12624;BME280;6377;42.836;23.998;2023-04-09T05:33:58;95930.28;;;7.06;100.00
12624;BME280;6377;42.836;23.998;2023-04-09T05:36:26;95952.75;;;7.18;100.00
12624;BME280;6377;42.836;23.998;2023-04-09T05:38:53;95991.06;;;7.56;100.00
12624;BME280;6377;42.836;23.998;2023-04-09T05:41:20;95929.69;;;7.30;100.00
12624;BME280;6377;42.836;23.998;2023-04-09T05:43:49;95954.53;;;7.53;100.00
12624;BME280;6377;42.836;23.998;2023-04-09T05:46:17;95987.84;;;7.88;100.00
12624;BME280;6377;42.836;23.998;2023-04-09T05:48:46;95988.53;;;7.90;100.00
12624;BME280;6377;42.836;23.998;2023-04-09T05:51:13;95915.06;;;7.53;100.00
12624;BME280;6377;42.836;23.998;2023-04-09T05:53:40;95975.13;;;8.01;100.00
12624;BME280;6377;42.836;23.998;2023-04-09T05:56:12;95976.50;;;7.87;100.00
12624;BME280;6377;42.836;23.998;2023-04-09T05:58:40;95960.50;;;7.63;100.00
12624;BME280;6377;42.836;23.998;2023-04-09T06:01:08;95992.72;;;7.75;100.00
12624;BME280;6377;42.836;23.998;2023-04-09T06:03:36;95966.56;;;7.56;100.00
12624;BME280;6377;42.836;23.998;2023-04-09T06:06:03;95988.41;;;7.74;100.00
12624;BME280;6377;42.836;23.998;2023-04-09T06:08:30;95991.28;;;7.80;100.00
12624;BME280;6377;42.836;23.998;2023-04-09T06:10:57;95999.16;;;7.80;100.00
12624;BME280;6377;42.836;23.998;2023-04-09T06:13:25;95993.44;;;7.85;100.00
12624;BME280;6377;42.836;23.998;2023-04-09T06:15:52;95995.81;;;7.96;100.00
12624;BME280;6377;42.836;23.998;2023-04-09T06:18:21;95984.09;;;7.90;100.00
12624;BME280;6377;42.836;23.998;2023-04-09T06:20:48;95998.44;;;7.96;100.00
12624;BME280;6377;42.836;23.998;2023-04-09T06:23:15;96003.56;;;7.98;100.00
12624;BME280;6377;42.836;23.998;2023-04-09T06:25:42;96003.94;;;8.03;100.00
12624;BME280;6377;42.836;23.998;2023-04-09T06:28:10;96005.31;;;8.15;100.00
12624;BME280;6377;42.836;23.998;2023-04-09T06:30:37;95873.56;;;7.47;100.00
12624;BME280;6377;42.836;23.998;2023-04-09T06:33:04;96008.59;;;8.34;100.00
12624;BME280;6377;42.836;23.998;2023-04-09T06:35:33;96008.06;;;8.31;100.00
12624;BME280;6377;42.836;23.998;2023-04-09T06:38:00;96010.63;;;8.23;100.00
12624;BME280;6377;42.836;23.998;2023-04-09T06:40:27;96010.59;;;8.15;100.00
12624;BME280;6377;42.836;23.998;2023-04-09T06:42:55;95875.97;;;7.41;100.00
12624;BME280;6377;42.836;23.998;2023-04-09T06:45:22;96008.91;;;8.31;100.00
12624;BME280;6377;42.836;23.998;2023-04-09T06:47:50;95966.22;;;8.02;100.00
12624;BME280;6377;42.836;23.998;2023-04-09T06:50:17;96015.06;;;8.22;100.00
12624;BME280;6377;42.836;23.998;2023-04-09T06:52:46;95942.72;;;7.57;100.00
12624;BME280;6377;42.836;23.998;2023-04-09T06:55:13;96018.97;;;7.93;100.00
12624;BME280;6377;42.836;23.998;2023-04-09T06:57:40;96012.50;;;8.05;100.00
12624;BME280;6377;42.836;23.998;2023-04-09T07:00:08;95886.28;;;7.34;100.00
12624;BME280;6377;42.836;23.998;2023-04-09T07:02:36;95900.44;;;7.33;100.00
12624;BME280;6377;42.836;23.998;2023-04-09T07:05:04;96006.16;;;8.15;100.00
12624;BME280;6377;42.836;23.998;2023-04-09T07:07:31;96008.59;;;8.34;100.00
12624;BME280;6377;42.836;23.998;2023-04-09T07:10:00;95891.38;;;7.53;100.00
12624;BME280;6377;42.836;23.998;2023-04-09T07:12:32;95934.88;;;7.91;100.00
12624;BME280;6377;42.836;23.998;2023-04-09T07:15:01;96023.50;;;8.52;100.00
12624;BME280;6377;42.836;23.998;2023-04-09T07:17:30;96023.81;;;8.49;100.00
12624;BME280;6377;42.836;23.998;2023-04-09T07:19:57;95937.78;;;7.80;100.00
12624;BME280;6377;42.836;23.998;2023-04-09T07:22:25;95862.19;;;7.47;100.00
12624;BME280;6377;42.836;23.998;2023-04-09T07:24:53;96018.94;;;8.54;100.00
12624;BME280;6377;42.836;23.998;2023-04-09T07:27:23;96013.75;;;8.78;100.00
12624;BME280;6377;42.836;23.998;2023-04-09T07:29:52;95969.91;;;8.35;100.00
12624;BME280;6377;42.836;23.998;2023-04-09T07:32:20;95999.88;;;8.68;100.00
12624;BME280;6377;42.836;23.998;2023-04-09T07:34:47;96026.03;;;9.03;100.00
12624;BME280;6377;42.836;23.998;2023-04-09T07:37:14;95890.91;;;8.17;100.00
12624;BME280;6377;42.836;23.998;2023-04-09T07:39:41;96029.03;;;9.08;100.00
12624;BME280;6377;42.836;23.998;2023-04-09T07:42:08;95883.84;;;8.26;100.00
12624;BME280;6377;42.836;23.998;2023-04-09T07:44:37;95999.03;;;9.09;100.00
12624;BME280;6377;42.836;23.998;2023-04-09T07:47:05;96004.84;;;9.37;100.00
12624;BME280;6377;42.836;23.998;2023-04-09T07:49:35;95986.88;;;9.48;100.00
12624;BME280;6377;42.836;23.998;2023-04-09T07:52:03;96012.00;;;9.77;100.00
12624;BME280;6377;42.836;23.998;2023-04-09T07:54:30;96022.69;;;10.07;100.00
12624;BME280;6377;42.836;23.998;2023-04-09T07:56:58;96030.97;;;10.21;100.00
12624;BME280;6377;42.836;23.998;2023-04-09T07:59:26;96031.97;;;10.36;100.00
12624;BME280;6377;42.836;23.998;2023-04-09T08:01:55;96003.69;;;10.04;100.00
12624;BME280;6377;42.836;23.998;2023-04-09T08:04:23;95960.78;;;9.78;100.00
12624;BME280;6377;42.836;23.998;2023-04-09T08:06:50;96020.41;;;10.12;100.00
12624;BME280;6377;42.836;23.998;2023-04-09T08:09:18;96029.50;;;10.18;100.00
12624;BME280;6377;42.836;23.998;2023-04-09T08:11:45;95998.94;;;9.91;100.00
12624;BME280;6377;42.836;23.998;2023-04-09T08:14:13;96026.34;;;10.23;100.00
12624;BME280;6377;42.836;23.998;2023-04-09T08:16:42;96023.31;;;10.50;100.00
12624;BME280;6377;42.836;23.998;2023-04-09T08:19:12;95823.38;;;8.98;100.00
12624;BME280;6377;42.836;23.998;2023-04-09T08:21:40;95918.25;;;9.56;100.00
12624;BME280;6377;42.836;23.998;2023-04-09T08:24:08;96000.25;;;10.03;100.00
12624;BME280;6377;42.836;23.998;2023-04-09T08:26:36;95986.72;;;10.06;100.00
12624;BME280;6377;42.836;23.998;2023-04-09T08:29:03;95864.28;;;9.43;100.00
12624;BME280;6377;42.836;23.998;2023-04-09T08:31:31;96025.84;;;10.35;100.00
12624;BME280;6377;42.836;23.998;2023-04-09T08:33:58;96029.31;;;10.20;100.00
12624;BME280;6377;42.836;23.998;2023-04-09T08:36:27;96028.31;;;10.12;100.00
12624;BME280;6377;42.836;23.998;2023-04-09T08:38:54;96021.88;;;10.23;100.00
12624;BME280;6377;42.836;23.998;2023-04-09T08:41:24;96009.84;;;10.21;100.00
12624;BME280;6377;42.836;23.998;2023-04-09T08:43:52;95974.13;;;10.08;100.00
12624;BME280;6377;42.836;23.998;2023-04-09T08:46:19;95953.50;;;9.96;100.00
12624;BME280;6377;42.836;23.998;2023-04-09T08:48:48;95959.59;;;10.04;100.00
12624;BME280;6377;42.836;23.998;2023-04-09T08:51:18;95933.84;;;9.98;100.00
12624;BME280;6377;42.836;23.998;2023-04-09T08:53:48;95978.41;;;10.34;100.00
12624;BME280;6377;42.836;23.998;2023-04-09T08:56:18;95977.22;;;10.36;100.00
12624;BME280;6377;42.836;23.998;2023-04-09T08:58:46;96013.31;;;10.76;100.00
12624;BME280;6377;42.836;23.998;2023-04-09T09:01:21;96017.06;;;10.98;100.00
12624;BME280;6377;42.836;23.998;2023-04-09T09:03:56;96007.28;;;11.29;100.00
12624;BME280;6377;42.836;23.998;2023-04-09T09:06:25;95963.66;;;11.17;100.00
12624;BME280;6377;42.836;23.998;2023-04-09T09:09:05;95951.91;;;11.42;100.00
12624;BME280;6377;42.836;23.998;2023-04-09T09:11:33;95938.66;;;11.65;100.00
12624;BME280;6377;42.836;23.998;2023-04-09T09:14:03;95966.84;;;12.03;100.00
12624;BME280;6377;42.836;23.998;2023-04-09T09:16:31;95994.16;;;12.04;100.00
12624;BME280;6377;42.836;23.998;2023-04-09T09:18:59;95991.03;;;12.23;100.00
12624;BME280;6377;42.836;23.998;2023-04-09T09:21:27;95978.94;;;12.20;100.00
12624;BME280;6377;42.836;23.998;2023-04-09T09:23:55;95949.66;;;11.99;100.00
12624;BME280;6377;42.836;23.998;2023-04-09T09:26:29;95797.91;;;10.71;100.00
12624;BME280;6377;42.836;23.998;2023-04-09T09:29:02;95898.94;;;11.19;100.00
12624;BME280;6377;42.836;23.998;2023-04-09T09:31:30;95888.78;;;10.86;100.00
12624;BME280;6377;42.836;23.998;2023-04-09T09:34:11;96000.88;;;11.46;100.00
12624;BME280;6377;42.836;23.998;2023-04-09T09:36:39;95872.75;;;10.79;100.00
12624;BME280;6377;42.836;23.998;2023-04-09T09:39:06;95862.19;;;10.79;100.00
12624;BME280;6377;42.836;23.998;2023-04-09T09:41:38;95993.78;;;11.69;100.00
12624;BME280;6377;42.836;23.998;2023-04-09T09:44:07;95977.94;;;11.39;100.00
12624;BME280;6377;42.836;23.998;2023-04-09T09:46:37;95947.72;;;11.25;100.00
12624;BME280;6377;42.836;23.998;2023-04-09T09:49:05;95956.16;;;11.29;100.00
12624;BME280;6377;42.836;23.998;2023-04-09T09:51:36;95796.38;;;10.23;100.00
12624;BME280;6377;42.836;23.998;2023-04-09T09:54:06;95972.50;;;11.09;100.00
12624;BME280;6377;42.836;23.998;2023-04-09T09:56:38;95827.25;;;10.22;100.00
12624;BME280;6377;42.836;23.998;2023-04-09T09:59:14;95980.88;;;11.44;100.00
12624;BME280;6377;42.836;23.998;2023-04-09T10:01:42;95983.81;;;11.49;100.00
12624;BME280;6377;42.836;23.998;2023-04-09T10:04:13;95989.53;;;11.60;100.00
12624;BME280;6377;42.836;23.998;2023-04-09T10:06:47;95881.13;;;11.13;100.00
12624;BME280;6377;42.836;23.998;2023-04-09T10:09:34;95878.75;;;11.18;100.00
12624;BME280;6377;42.836;23.998;2023-04-09T10:12:12;95974.72;;;11.74;100.00
12624;BME280;6377;42.836;23.998;2023-04-09T10:14:40;95830.25;;;11.03;100.00
12624;BME280;6377;42.836;23.998;2023-04-09T10:17:15;95899.06;;;11.49;100.00
12624;BME280;6377;42.836;23.998;2023-04-09T10:20:04;95793.91;;;10.75;100.00
12624;BME280;6377;42.836;23.998;2023-04-09T10:22:48;95797.44;;;10.90;100.00
12624;BME280;6377;42.836;23.998;2023-04-09T10:25:17;95938.84;;;12.01;100.00
12624;BME280;6377;42.836;23.998;2023-04-09T10:27:58;95980.06;;;12.41;100.00
12624;BME280;6377;42.836;23.998;2023-04-09T10:30:33;95908.72;;;12.16;100.00
12624;BME280;6377;42.836;23.998;2023-04-09T10:33:11;95780.13;;;11.54;100.00
12624;BME280;6377;42.836;23.998;2023-04-09T10:35:42;95824.22;;;11.69;100.00
12624;BME280;6377;42.836;23.998;2023-04-09T10:40:58;95935.44;;;12.59;100.00
12624;BME280;6377;42.836;23.998;2023-04-09T10:43:50;95797.19;;;11.74;100.00
12624;BME280;6377;42.836;23.998;2023-04-09T10:46:42;95800.66;;;11.74;100.00
12624;BME280;6377;42.836;23.998;2023-04-09T10:49:17;95926.28;;;12.32;100.00
12624;BME280;6377;42.836;23.998;2023-04-09T10:52:00;95815.66;;;11.30;100.00
12624;BME280;6377;42.836;23.998;2023-04-09T10:54:42;95800.16;;;11.19;100.00
12624;BME280;6377;42.836;23.998;2023-04-09T10:57:20;95894.50;;;11.57;100.00
12624;BME280;6377;42.836;23.998;2023-04-09T11:00:04;95810.72;;;10.82;100.00
12624;BME280;6377;42.836;23.998;2023-04-09T11:03:18;95770.22;;;10.81;100.00
12624;BME280;6377;42.836;23.998;2023-04-09T11:06:05;95764.44;;;10.78;100.00
12624;BME280;6377;42.836;23.998;2023-04-09T11:08:57;95783.34;;;10.97;100.00
12624;BME280;6377;42.836;23.998;2023-04-09T11:11:35;95818.56;;;11.35;100.00
12624;BME280;6377;42.836;23.998;2023-04-09T11:14:02;95815.69;;;11.45;100.00
12624;BME280;6377;42.836;23.998;2023-04-09T11:22:32;95914.66;;;12.48;100.00
12624;BME280;6377;42.836;23.998;2023-04-09T11:25:48;95883.28;;;12.36;100.00
12624;BME280;6377;42.836;23.998;2023-04-09T11:28:28;95947.72;;;12.96;100.00
12624;BME280;6377;42.836;23.998;2023-04-09T11:52:27;95927.91;;;13.70;100.00
12624;BME280;6377;42.836;23.998;2023-04-09T11:57:39;95875.94;;;14.23;100.00
12624;BME280;6377;42.836;23.998;2023-04-09T12:02:44;95747.41;;;12.77;100.00
12624;BME280;6377;42.836;23.998;2023-04-09T12:05:22;95733.88;;;12.51;100.00
12624;BME280;6377;42.836;23.998;2023-04-09T12:10:27;95747.56;;;12.33;100.00
12624;BME280;6377;42.836;23.998;2023-04-09T12:15:31;95724.69;;;11.96;100.00
12624;BME280;6377;42.836;23.998;2023-04-09T12:17:59;95740.63;;;11.82;100.00
12624;BME280;6377;42.836;23.998;2023-04-09T12:20:28;95830.22;;;12.36;100.00
12624;BME280;6377;42.836;23.998;2023-04-09T12:22:56;95782.81;;;11.83;100.00
12624;BME280;6377;42.836;23.998;2023-04-09T12:25:24;95830.00;;;12.02;100.00
12624;BME280;6377;42.836;23.998;2023-04-09T12:27:54;95767.06;;;11.38;100.00
12624;BME280;6377;42.836;23.998;2023-04-09T12:30:22;95922.88;;;12.09;100.00
12624;BME280;6377;42.836;23.998;2023-04-09T12:32:51;95900.56;;;11.89;100.00
12624;BME280;6377;42.836;23.998;2023-04-09T12:35:19;95871.50;;;11.58;100.00
12624;BME280;6377;42.836;23.998;2023-04-09T12:37:46;95740.25;;;10.43;100.00
12624;BME280;6377;42.836;23.998;2023-04-09T12:40:14;95730.38;;;9.98;100.00
12624;BME280;6377;42.836;23.998;2023-04-09T12:42:43;95808.44;;;10.56;100.00
12624;BME280;6377;42.836;23.998;2023-04-09T12:45:14;95913.84;;;11.20;100.00
12624;BME280;6377;42.836;23.998;2023-04-09T12:47:42;95757.22;;;10.26;100.00
12624;BME280;6377;42.836;23.998;2023-04-09T12:50:14;95772.66;;;10.37;100.00
12624;BME280;6377;42.836;23.998;2023-04-09T12:52:45;95843.03;;;11.00;100.00
12624;BME280;6377;42.836;23.998;2023-04-09T12:55:14;95717.50;;;10.34;100.00
12624;BME280;6377;42.836;23.998;2023-04-09T12:57:43;95757.44;;;10.39;100.00
12624;BME280;6377;42.836;23.998;2023-04-09T13:00:14;95886.94;;;11.32;100.00
12624;BME280;6377;42.836;23.998;2023-04-09T13:02:42;95884.94;;;11.34;100.00
12624;BME280;6377;42.836;23.998;2023-04-09T13:05:11;95825.13;;;11.02;100.00
12624;BME280;6377;42.836;23.998;2023-04-09T13:12:48;95785.25;;;10.58;100.00
12624;BME280;6377;42.836;23.998;2023-04-09T13:20:43;95776.47;;;10.65;100.00
12624;BME280;6377;42.836;23.998;2023-04-09T13:23:11;95728.19;;;10.41;100.00
12624;BME280;6377;42.836;23.998;2023-04-09T13:25:43;95742.00;;;10.51;100.00
12624;BME280;6377;42.836;23.998;2023-04-09T13:28:11;95809.25;;;11.02;100.00
12624;BME280;6377;42.836;23.998;2023-04-09T13:35:43;95941.28;;;11.50;100.00
12624;BME280;6377;42.836;23.998;2023-04-09T13:38:11;95752.09;;;10.25;100.00
12624;BME280;6377;42.836;23.998;2023-04-09T13:40:38;95718.63;;;10.09;100.00
12624;BME280;6377;42.836;23.998;2023-04-09T13:43:05;95942.06;;;11.05;100.00
12624;BME280;6377;42.836;23.998;2023-04-09T13:45:33;95876.75;;;10.75;100.00
12624;BME280;6377;42.836;23.998;2023-04-09T13:48:01;95909.97;;;11.08;100.00
12624;BME280;6377;42.836;23.998;2023-04-09T13:50:29;95852.72;;;10.54;100.00
12624;BME280;6377;42.836;23.998;2023-04-09T13:52:57;95775.16;;;10.00;100.00
12624;BME280;6377;42.836;23.998;2023-04-09T13:55:27;95917.81;;;10.94;100.00
12624;BME280;6377;42.836;23.998;2023-04-09T13:57:55;95760.63;;;9.96;100.00
12624;BME280;6377;42.836;23.998;2023-04-09T14:00:23;95921.44;;;10.93;100.00
12624;BME280;6377;42.836;23.998;2023-04-09T14:02:50;95835.19;;;10.30;100.00
12624;BME280;6377;42.836;23.998;2023-04-09T14:05:17;95904.81;;;10.53;100.00
12624;BME280;6377;42.836;23.998;2023-04-09T14:07:45;95776.28;;;9.58;100.00